createdAt,value
2018-07-19T00:00:03.969Z,12.45
2018-07-19T00:01:03.951Z,12.44
2018-07-19T00:02:03.940Z,12.42
2018-07-19T00:03:03.917Z,12.46
2018-07-19T00:04:24.902Z,12.37
2018-07-19T00:05:03.893Z,12.42
2018-07-19T00:06:03.879Z,12.42
2018-07-19T00:07:03.864Z,12.39
2018-07-19T00:08:03.858Z,12.31
2018-07-19T00:09:03.912Z,12.29
2018-07-19T00:10:24.804Z,12.33
2018-07-19T00:11:03.794Z,12.31
2018-07-19T00:12:03.804Z,12.29
2018-07-19T00:13:03.759Z,12.27
2018-07-19T00:14:03.741Z,12.41
2018-07-19T00:15:03.753Z,12.46
2018-07-19T00:16:24.708Z,12.44
2018-07-19T00:17:03.695Z,12.42
2018-07-19T00:18:03.677Z,12.41
2018-07-19T00:19:03.781Z,12.44
2018-07-19T00:20:03.654Z,12.44
2018-07-19T00:21:03.615Z,12.48
2018-07-19T00:22:24.606Z,12.45
2018-07-19T00:23:03.583Z,12.46
2018-07-19T00:24:03.568Z,12.41
2018-07-19T00:25:03.548Z,12.46
2018-07-19T00:26:03.539Z,12.44
2018-07-19T00:27:03.520Z,12.41
2018-07-19T00:28:24.501Z,12.45
2018-07-19T00:29:03.488Z,12.37
2018-07-19T00:30:03.462Z,12.41
2018-07-19T00:31:03.452Z,12.30
2018-07-19T00:32:03.444Z,12.38
2018-07-19T00:33:03.425Z,12.31
2018-07-19T00:34:24.403Z,12.38
2018-07-19T00:35:03.385Z,12.26
2018-07-19T00:36:03.370Z,12.29
2018-07-19T00:37:03.357Z,12.41
2018-07-19T00:38:03.331Z,12.31
2018-07-19T00:39:03.325Z,12.39
2018-07-19T00:40:24.307Z,12.41
2018-07-19T00:41:03.289Z,12.45
2018-07-19T00:42:03.267Z,12.44
2018-07-19T00:43:03.249Z,12.44
2018-07-19T00:44:03.243Z,12.45
2018-07-19T00:45:03.213Z,12.46
2018-07-19T00:46:24.206Z,12.45
2018-07-19T00:47:03.179Z,12.44
2018-07-19T00:48:03.163Z,12.44
2018-07-19T00:49:03.153Z,12.42
2018-07-19T00:50:03.137Z,12.44
2018-07-19T00:51:03.118Z,12.41
2018-07-19T00:52:24.107Z,12.38
2018-07-19T00:53:03.077Z,12.30
2018-07-19T00:54:03.063Z,12.41
2018-07-19T00:55:03.050Z,12.27
2018-07-19T00:56:03.034Z,12.26
2018-07-19T00:57:03.004Z,12.27
2018-07-19T00:58:23.994Z,12.41
2018-07-19T00:59:02.981Z,12.34
2018-07-19T01:00:02.956Z,12.24
2018-07-19T01:01:02.942Z,12.31
2018-07-19T01:02:02.930Z,12.30
2018-07-19T01:03:02.911Z,12.41
2018-07-19T01:04:23.905Z,12.38
2018-07-19T01:05:02.873Z,12.42
2018-07-19T01:06:02.853Z,12.42
2018-07-19T01:07:02.843Z,12.48
2018-07-19T01:08:02.828Z,12.48
2018-07-19T01:09:02.810Z,12.39
2018-07-19T01:10:23.797Z,12.33
2018-07-19T01:11:02.789Z,12.30
2018-07-19T01:12:02.756Z,12.20
2018-07-19T01:13:02.739Z,12.16
2018-07-19T01:14:02.724Z,12.21
2018-07-19T01:15:02.701Z,12.19
2018-07-19T01:16:23.692Z,12.19
2018-07-19T01:17:02.675Z,12.06
2018-07-19T01:18:02.656Z,12.01
2018-07-19T01:19:02.640Z,12.09
2018-07-19T01:20:02.641Z,12.12
2018-07-19T01:21:02.607Z,12.16
2018-07-19T01:22:23.589Z,11.99
2018-07-19T01:23:02.571Z,12.04
2018-07-19T01:24:02.559Z,11.96
2018-07-19T01:25:02.534Z,11.96
2018-07-19T01:26:02.519Z,11.97
2018-07-19T01:27:02.508Z,11.93
2018-07-19T01:28:23.490Z,11.87
2018-07-19T01:29:02.465Z,11.80
2018-07-19T01:30:02.467Z,11.71
2018-07-19T01:31:02.434Z,11.67
2018-07-19T01:32:02.420Z,11.72
2018-07-19T01:33:02.400Z,11.67
2018-07-19T01:34:23.387Z,11.53
2018-07-19T01:35:02.380Z,11.62
2018-07-19T01:36:02.339Z,11.57
2018-07-19T01:37:02.330Z,11.53
2018-07-19T01:38:02.310Z,11.54
2018-07-19T01:39:02.298Z,11.70
2018-07-19T01:40:23.284Z,11.72
2018-07-19T01:41:02.263Z,11.82
2018-07-19T01:42:02.247Z,11.78
2018-07-19T01:43:02.231Z,11.70
2018-07-19T01:44:02.210Z,11.71
2018-07-19T01:45:02.197Z,11.70
2018-07-19T01:46:23.180Z,11.75
2018-07-19T01:47:02.163Z,11.74
2018-07-19T01:48:02.152Z,11.80
2018-07-19T01:49:02.134Z,11.82
2018-07-19T01:50:02.104Z,11.82
2018-07-19T01:51:02.095Z,11.78
2018-07-19T01:52:23.076Z,11.87
2018-07-19T01:53:02.053Z,11.93
2018-07-19T01:54:02.040Z,11.99
2018-07-19T01:55:02.026Z,11.93
2018-07-19T01:56:02.007Z,11.96
2018-07-19T01:57:01.986Z,11.90
2018-07-19T01:58:22.978Z,12.02
2018-07-19T01:59:01.951Z,12.02
2018-07-19T02:00:01.999Z,12.08
2018-07-19T02:01:01.922Z,12.12
2018-07-19T02:02:01.901Z,12.13
2018-07-19T02:03:01.877Z,12.16
2018-07-19T02:04:22.873Z,12.16
2018-07-19T02:05:01.849Z,12.13
2018-07-19T02:06:01.836Z,12.09
2018-07-19T02:07:01.814Z,12.04
2018-07-19T02:08:01.797Z,11.93
2018-07-19T02:09:01.781Z,11.80
2018-07-19T02:10:22.771Z,11.80
2018-07-19T02:11:01.747Z,11.80
2018-07-19T02:12:01.730Z,11.74
2018-07-19T02:13:01.708Z,11.61
2018-07-19T02:14:01.692Z,11.70
2018-07-19T02:15:01.676Z,11.74
2018-07-19T02:16:22.659Z,12.04
2018-07-19T02:17:01.648Z,12.09
2018-07-19T02:18:01.624Z,12.19
2018-07-19T02:19:01.605Z,12.21
2018-07-19T02:20:01.589Z,12.19
2018-07-19T02:21:01.567Z,12.12
2018-07-19T02:22:22.557Z,12.21
2018-07-19T02:23:01.532Z,12.16
2018-07-19T02:24:01.515Z,12.20
2018-07-19T02:25:01.518Z,12.13
2018-07-19T02:26:01.487Z,12.11
2018-07-19T02:27:01.464Z,12.05
2018-07-19T02:28:22.449Z,11.96
2018-07-19T02:29:01.435Z,11.86
2018-07-19T02:30:01.484Z,11.80
2018-07-19T02:31:01.396Z,11.70
2018-07-19T02:32:01.630Z,11.83
2018-07-19T02:33:01.357Z,11.86
2018-07-19T02:34:22.346Z,11.93
2018-07-19T02:35:01.334Z,11.94
2018-07-19T02:36:01.308Z,12.02
2018-07-19T02:37:01.299Z,12.04
2018-07-19T02:38:01.280Z,11.90
2018-07-19T02:39:01.264Z,12.02
2018-07-19T02:40:22.234Z,11.99
2018-07-19T02:41:01.220Z,11.89
2018-07-19T02:42:01.211Z,11.93
2018-07-19T02:43:01.184Z,11.82
2018-07-19T02:44:01.175Z,11.89
2018-07-19T02:45:01.157Z,11.80
2018-07-19T02:46:22.144Z,11.74
2018-07-19T02:47:01.123Z,11.82
2018-07-19T02:48:01.132Z,11.71
2018-07-19T02:49:01.084Z,11.72
2018-07-19T02:50:01.067Z,11.70
2018-07-19T02:51:01.047Z,11.68
2018-07-19T02:52:22.034Z,11.62
2018-07-19T02:53:01.012Z,11.59
2018-07-19T02:54:01.023Z,11.59
2018-07-19T02:55:00.977Z,11.52
2018-07-19T02:56:00.961Z,11.47
2018-07-19T02:57:00.947Z,11.43
2018-07-19T02:58:21.927Z,11.36
2018-07-19T02:59:00.906Z,11.28
2018-07-19T03:00:00.906Z,11.28
2018-07-19T03:01:00.882Z,11.17
2018-07-19T03:02:00.890Z,11.25
2018-07-19T03:03:00.836Z,11.24
2018-07-19T03:04:21.823Z,11.21
2018-07-19T03:05:00.795Z,11.31
2018-07-19T03:06:00.782Z,11.47
2018-07-19T03:07:00.766Z,11.68
2018-07-19T03:08:00.763Z,11.77
2018-07-19T03:09:00.734Z,11.83
2018-07-19T03:10:21.718Z,11.87
2018-07-19T03:11:00.692Z,11.85
2018-07-19T03:12:00.680Z,11.78
2018-07-19T03:13:00.660Z,11.74
2018-07-19T03:14:00.648Z,11.75
2018-07-19T03:15:00.632Z,11.71
2018-07-19T03:16:21.607Z,11.70
2018-07-19T03:17:00.588Z,11.64
2018-07-19T03:18:00.579Z,11.53
2018-07-19T03:19:00.556Z,11.43
2018-07-19T03:20:00.543Z,11.44
2018-07-19T03:21:00.521Z,11.39
2018-07-19T03:22:21.508Z,11.20
2018-07-19T03:23:00.486Z,11.14
2018-07-19T03:24:00.467Z,11.24
2018-07-19T03:25:00.444Z,11.21
2018-07-19T03:26:00.431Z,11.27
2018-07-19T03:27:00.420Z,11.25
2018-07-19T03:28:21.402Z,11.35
2018-07-19T03:29:00.376Z,11.36
2018-07-19T03:30:00.356Z,11.35
2018-07-19T03:31:00.426Z,11.35
2018-07-19T03:32:00.331Z,11.39
2018-07-19T03:33:00.318Z,11.38
2018-07-19T03:34:21.296Z,11.31
2018-07-19T03:35:00.285Z,11.38
2018-07-19T03:36:00.254Z,11.38
2018-07-19T03:37:00.238Z,11.39
2018-07-19T03:38:00.219Z,11.24
2018-07-19T03:39:00.200Z,11.24
2018-07-19T03:40:21.187Z,11.24
2018-07-19T03:41:00.175Z,11.19
2018-07-19T03:42:00.149Z,11.32
2018-07-19T03:43:00.134Z,11.25
2018-07-19T03:44:00.108Z,11.28
2018-07-19T03:45:00.095Z,11.32
2018-07-19T03:46:21.082Z,11.35
2018-07-19T03:47:00.063Z,11.44
2018-07-19T03:48:00.044Z,11.47
2018-07-19T03:49:00.027Z,11.52
2018-07-19T03:50:00.015Z,11.39
2018-07-19T03:51:00.002Z,11.49
2018-07-19T03:52:20.979Z,11.52
2018-07-19T03:52:59.956Z,11.44
2018-07-19T03:53:59.938Z,11.38
2018-07-19T03:54:59.925Z,11.38
2018-07-19T03:55:59.895Z,11.41
2018-07-19T03:56:59.883Z,11.38
2018-07-19T03:58:20.860Z,11.44
2018-07-19T03:58:59.847Z,11.50
2018-07-19T03:59:59.832Z,11.41
2018-07-19T04:00:59.820Z,11.44
2018-07-19T04:01:59.837Z,11.54
2018-07-19T04:02:59.779Z,11.50
2018-07-19T04:04:20.764Z,11.56
2018-07-19T04:04:59.738Z,11.56
2018-07-19T04:05:59.724Z,11.61
2018-07-19T04:06:59.704Z,11.61
2018-07-19T04:07:59.702Z,11.56
2018-07-19T04:08:59.664Z,11.62
2018-07-19T04:10:20.655Z,11.59
2018-07-19T04:10:59.635Z,11.61
2018-07-19T04:11:59.625Z,11.57
2018-07-19T04:12:59.599Z,11.61
2018-07-19T04:13:59.590Z,11.71
2018-07-19T04:14:59.564Z,11.56
2018-07-19T04:16:20.551Z,11.65
2018-07-19T04:16:59.560Z,11.68
2018-07-19T04:17:59.517Z,11.74
2018-07-19T04:18:59.500Z,11.70
2018-07-19T04:19:59.478Z,11.68
2018-07-19T04:20:59.455Z,11.64
2018-07-19T04:22:20.445Z,11.70
2018-07-19T04:22:59.420Z,11.82
2018-07-19T04:23:59.411Z,11.70
2018-07-19T04:24:59.407Z,11.78
2018-07-19T04:25:59.380Z,11.74
2018-07-19T04:26:59.354Z,11.83
2018-07-19T04:28:20.344Z,11.78
2018-07-19T04:28:59.317Z,11.89
2018-07-19T04:29:59.301Z,11.93
2018-07-19T04:30:59.285Z,12.01
2018-07-19T04:31:59.260Z,11.96
2018-07-19T04:32:59.253Z,11.96
2018-07-19T04:34:20.237Z,11.99
2018-07-19T04:34:59.211Z,12.02
2018-07-19T04:35:59.201Z,12.02
2018-07-19T04:36:59.182Z,12.04
2018-07-19T04:37:59.166Z,12.06
2018-07-19T04:38:59.148Z,12.05
2018-07-19T04:40:20.143Z,12.02
2018-07-19T04:40:59.105Z,12.04
2018-07-19T04:41:59.087Z,12.12
2018-07-19T04:42:59.076Z,12.13
2018-07-19T04:43:59.069Z,12.19
2018-07-19T04:44:59.099Z,12.16
2018-07-19T04:46:20.030Z,12.16
2018-07-19T04:46:59.024Z,12.26
2018-07-19T04:47:58.985Z,12.33
2018-07-19T04:48:58.968Z,12.27
2018-07-19T04:49:58.954Z,12.30
2018-07-19T04:50:58.943Z,12.38
2018-07-19T04:52:19.927Z,12.41
2018-07-19T04:52:58.899Z,12.48
2018-07-19T04:53:58.925Z,12.56
2018-07-19T04:54:58.871Z,12.54
2018-07-19T04:55:58.851Z,12.70
2018-07-19T04:56:58.838Z,12.69
2018-07-19T04:58:19.820Z,12.75
2018-07-19T04:58:58.800Z,12.84
2018-07-19T04:59:58.794Z,12.88
2018-07-19T05:00:58.762Z,12.93
2018-07-19T05:01:58.812Z,12.97
2018-07-19T05:02:58.739Z,12.99
2018-07-19T05:04:19.717Z,13.02
2018-07-19T05:04:58.705Z,13.03
2018-07-19T05:05:58.679Z,13.24
2018-07-19T05:06:58.666Z,13.15
2018-07-19T05:07:58.659Z,13.24
2018-07-19T05:08:58.641Z,13.25
2018-07-19T05:10:19.623Z,13.33
2018-07-19T05:10:58.602Z,13.38
2018-07-19T05:11:58.583Z,13.40
2018-07-19T05:12:58.570Z,13.51
2018-07-19T05:13:58.591Z,13.44
2018-07-19T05:14:58.535Z,13.51
2018-07-19T05:16:19.518Z,13.56
2018-07-19T05:16:58.500Z,13.56
2018-07-19T05:17:58.480Z,13.55
2018-07-19T05:18:58.472Z,13.61
2018-07-19T05:19:58.455Z,13.65
2018-07-19T05:20:58.430Z,13.70
2018-07-19T05:22:19.426Z,13.74
2018-07-19T05:22:58.404Z,13.89
2018-07-19T05:23:58.393Z,13.89
2018-07-19T05:24:58.379Z,13.84
2018-07-19T05:25:58.354Z,14.10
2018-07-19T05:26:58.337Z,14.10
2018-07-19T05:28:19.334Z,14.09
2018-07-19T05:28:58.312Z,14.19
2018-07-19T05:29:58.299Z,14.38
2018-07-19T05:30:58.279Z,14.42
2018-07-19T05:31:58.264Z,14.38
2018-07-19T05:32:58.245Z,14.47
2018-07-19T05:34:19.242Z,14.56
2018-07-19T05:34:58.211Z,14.65
2018-07-19T05:35:58.198Z,14.67
2018-07-19T05:36:58.176Z,14.62
2018-07-19T05:37:58.194Z,14.64
2018-07-19T05:38:58.157Z,14.62
2018-07-19T05:40:19.135Z,14.60
2018-07-19T05:40:58.125Z,14.60
2018-07-19T05:41:58.160Z,14.57
2018-07-19T05:42:58.093Z,14.60
2018-07-19T05:43:58.077Z,14.64
2018-07-19T05:44:58.060Z,14.65
2018-07-19T05:46:19.042Z,14.71
2018-07-19T05:46:58.024Z,14.81
2018-07-19T05:47:58.018Z,14.83
2018-07-19T05:48:57.995Z,14.86
2018-07-19T05:49:57.992Z,14.88
2018-07-19T05:50:57.962Z,15.02
2018-07-19T05:52:18.957Z,15.12
2018-07-19T05:52:57.943Z,15.12
2018-07-19T05:53:57.931Z,15.20
2018-07-19T05:54:57.909Z,15.12
2018-07-19T05:55:57.895Z,15.23
2018-07-19T05:56:57.873Z,15.27
2018-07-19T05:58:18.962Z,15.23
2018-07-19T05:58:57.849Z,15.27
2018-07-19T05:59:57.823Z,15.42
2018-07-19T06:00:57.820Z,15.35
2018-07-19T06:01:57.795Z,15.42
2018-07-19T06:02:57.782Z,15.48
2018-07-19T06:04:18.778Z,15.59
2018-07-19T06:04:57.754Z,15.61
2018-07-19T06:05:57.744Z,15.74
2018-07-19T06:06:57.722Z,15.78
2018-07-19T06:07:57.706Z,15.86
2018-07-19T06:08:57.696Z,16.01
2018-07-19T06:10:18.688Z,16.12
2018-07-19T06:10:57.694Z,16.22
2018-07-19T06:11:57.654Z,16.26
2018-07-19T06:12:57.638Z,16.33
2018-07-19T06:13:57.641Z,16.48
2018-07-19T06:14:57.615Z,16.59
2018-07-19T06:16:18.605Z,16.74
2018-07-19T06:16:57.582Z,16.85
2018-07-19T06:17:57.566Z,17.00
2018-07-19T06:18:57.557Z,16.92
2018-07-19T06:19:57.544Z,17.07
2018-07-19T06:20:57.522Z,17.15
2018-07-19T06:22:18.512Z,17.41
2018-07-19T06:22:57.496Z,17.38
2018-07-19T06:23:57.491Z,17.46
2018-07-19T06:24:57.480Z,17.67
2018-07-19T06:25:57.461Z,17.62
2018-07-19T06:26:57.442Z,17.76
2018-07-19T06:28:18.487Z,17.81
2018-07-19T06:28:57.424Z,17.95
2018-07-19T06:29:57.406Z,18.04
2018-07-19T06:30:57.386Z,18.17
2018-07-19T06:31:57.381Z,18.31
2018-07-19T06:32:57.367Z,18.37
2018-07-19T06:34:18.358Z,18.43
2018-07-19T06:34:57.345Z,18.55
2018-07-19T06:35:57.335Z,18.73
2018-07-19T06:36:57.312Z,18.84
2018-07-19T06:37:57.313Z,18.95
2018-07-19T06:38:57.287Z,19.18
2018-07-19T06:40:18.289Z,19.23
2018-07-19T06:40:57.264Z,19.29
2018-07-19T06:41:57.262Z,19.38
2018-07-19T06:42:57.239Z,19.46
2018-07-19T06:43:57.220Z,19.58
2018-07-19T06:44:57.213Z,19.58
2018-07-19T06:46:18.209Z,19.72
2018-07-19T06:46:57.188Z,19.70
2018-07-19T06:47:57.180Z,19.83
2018-07-19T06:48:57.165Z,19.95
2018-07-19T06:49:57.152Z,20.00
2018-07-19T06:50:57.140Z,20.20
2018-07-19T06:52:18.132Z,20.25
2018-07-19T06:52:57.124Z,20.31
2018-07-19T06:53:57.104Z,20.39
2018-07-19T06:54:57.098Z,20.51
2018-07-19T06:55:57.079Z,20.62
2018-07-19T06:56:57.066Z,20.69
2018-07-19T06:58:18.060Z,20.76
2018-07-19T06:58:57.044Z,20.83
2018-07-19T06:59:57.034Z,20.81
2018-07-19T07:00:57.018Z,20.86
2018-07-19T07:01:57.015Z,20.95
2018-07-19T07:02:57.026Z,20.98
2018-07-19T07:04:18.002Z,21.13
2018-07-19T07:04:56.970Z,21.23
2018-07-19T07:05:56.967Z,21.23
2018-07-19T07:06:56.951Z,21.35
2018-07-19T07:07:56.944Z,21.32
2018-07-19T07:08:56.987Z,21.44
2018-07-19T07:10:17.928Z,21.41
2018-07-19T07:10:56.916Z,21.48
2018-07-19T07:11:56.903Z,21.60
2018-07-19T07:12:56.883Z,21.54
2018-07-19T07:13:56.884Z,21.82
2018-07-19T07:14:56.876Z,21.90
2018-07-19T07:16:17.855Z,21.99
2018-07-19T07:16:56.852Z,21.97
2018-07-19T07:17:56.842Z,22.02
2018-07-19T07:18:56.825Z,22.02
2018-07-19T07:19:56.812Z,22.06
2018-07-19T07:20:56.809Z,22.16
2018-07-19T07:22:17.800Z,22.19
2018-07-19T07:22:56.916Z,22.20
2018-07-19T07:23:56.764Z,22.34
2018-07-19T07:24:56.761Z,22.32
2018-07-19T07:25:56.758Z,22.57
2018-07-19T07:26:56.748Z,22.60
2018-07-19T07:28:17.748Z,22.82
2018-07-19T07:28:56.726Z,23.01
2018-07-19T07:29:56.716Z,22.94
2018-07-19T07:30:56.722Z,23.08
2018-07-19T07:31:56.696Z,23.31
2018-07-19T07:32:56.710Z,23.62
2018-07-19T07:34:17.683Z,23.71
2018-07-19T07:34:56.662Z,23.95
2018-07-19T07:35:56.659Z,24.24
2018-07-19T07:36:56.649Z,24.42
2018-07-19T07:37:56.642Z,24.61
2018-07-19T07:38:56.701Z,25.05
2018-07-19T07:40:17.679Z,25.42
2018-07-19T07:40:56.622Z,25.69
2018-07-19T07:41:56.614Z,25.61
